SAM YPAD-YBBN
Flight info
| Callsign | SAM |
|---|---|
| Flight time | 1h 51m |
| Altitude | 41000 |
| Route | AD DCT UPROT Y27 IGIPA Y46 EMTID Y27 BN |
| Aircraft | CL60/M-SBDE1E2E3FGHIJ4J5J7M3RWXYZ/LB1V1D1 |
Departure
| Time | 2025-09-09 04:54 |
|---|---|
| Airport | Adelaide International Airport (YPAD) |
Arrival
| Time | 2025-09-09 06:45 |
|---|---|
| Airport | Brisbane International Airport (YBBN) |
| Time | Latitude | Longitude | Altitude | Speed | Heading |
|---|---|---|---|---|---|
| 2025-09-09 04:01 | -34.93775 | 138.53027 | 32 ft | 0 kts | 152° |
| 2025-09-09 04:49 | -34.93795 | 138.53041 | 32 ft | 6 kts | 152° |
| 2025-09-09 04:50 | -34.93894 | 138.53017 | 31 ft | 13 kts | 230° |
| 2025-09-09 04:50 | -34.94101 | 138.52928 | 31 ft | 16 kts | 188° |
| 2025-09-09 04:51 | -34.94483 | 138.53163 | 32 ft | 21 kts | 123° |
| 2025-09-09 04:51 | -34.94513 | 138.53319 | 33 ft | 13 kts | 61° |
| 2025-09-09 04:52 | -34.94577 | 138.53528 | 35 ft | 10 kts | 126° |
| 2025-09-09 04:52 | -34.95083 | 138.52841 | 48 ft | 139 kts | 230° |
| 2025-09-09 04:53 | -34.97474 | 138.49471 | 1961 ft | 216 kts | 229° |
| 2025-09-09 04:54 | -34.99651 | 138.46278 | 3499 ft | 263 kts | 229° |
| 2025-09-09 04:54 | -35.02245 | 138.43182 | 5959 ft | 266 kts | 207° |
| 2025-09-09 04:55 | -35.05890 | 138.42792 | 8241 ft | 290 kts | 159° |
| 2025-09-09 04:55 | -35.09220 | 138.45808 | 10686 ft | 319 kts | 130° |
| 2025-09-09 04:55 | -35.10413 | 138.48222 | 11240 ft | 350 kts | 104° |
| 2025-09-09 04:56 | -35.10178 | 138.57535 | 14077 ft | 386 kts | 77° |
| 2025-09-09 04:57 | -35.06231 | 138.65588 | 17420 ft | 379 kts | 40° |
| 2025-09-09 04:57 | -35.02644 | 138.70354 | 19320 ft | 391 kts | 39° |
| 2025-09-09 04:58 | -34.98899 | 138.75325 | 20983 ft | 405 kts | 38° |
| 2025-09-09 04:58 | -34.95043 | 138.80438 | 22433 ft | 420 kts | 37° |
| 2025-09-09 04:59 | -34.93058 | 138.83067 | 23090 ft | 428 kts | 37° |
| 2025-09-09 04:59 | -34.88989 | 138.88457 | 24313 ft | 440 kts | 36° |
| 2025-09-09 05:01 | -34.76176 | 139.05383 | 27766 ft | 468 kts | 35° |
| 2025-09-09 05:03 | -34.58096 | 139.29318 | 31686 ft | 490 kts | 40° |
| 2025-09-09 05:05 | -34.45836 | 139.65218 | 35276 ft | 518 kts | 59° |
| 2025-09-09 05:07 | -34.36784 | 139.93645 | 37430 ft | 516 kts | 59° |
| 2025-09-09 05:09 | -34.26192 | 140.26422 | 39154 ft | 523 kts | 60° |
| 2025-09-09 05:11 | -34.15461 | 140.59236 | 40534 ft | 523 kts | 62° |
| 2025-09-09 05:12 | -34.05963 | 140.87970 | 40937 ft | 532 kts | 61° |
| 2025-09-09 05:15 | -33.93418 | 141.25525 | 40937 ft | 538 kts | 62° |
| 2025-09-09 05:16 | -33.83561 | 141.54721 | 40961 ft | 537 kts | 62° |
| 2025-09-09 05:19 | -33.70902 | 141.92198 | 40909 ft | 539 kts | 61° |
| 2025-09-09 05:20 | -33.61205 | 142.21439 | 40950 ft | 539 kts | 62° |
| 2025-09-09 05:23 | -33.48662 | 142.58855 | 40947 ft | 539 kts | 62° |
| 2025-09-09 05:24 | -33.38788 | 142.87996 | 40930 ft | 538 kts | 61° |
| 2025-09-09 05:27 | -33.26039 | 143.25236 | 40901 ft | 539 kts | 60° |
| 2025-09-09 05:28 | -33.16031 | 143.54164 | 40907 ft | 540 kts | 60° |
| 2025-09-09 05:31 | -33.03043 | 143.91334 | 40938 ft | 540 kts | 59° |
| 2025-09-09 05:33 | -32.86649 | 144.25630 | 40991 ft | 526 kts | 49° |
| 2025-09-09 05:35 | -32.72985 | 144.51659 | 40942 ft | 530 kts | 49° |
| 2025-09-09 05:37 | -32.57297 | 144.81332 | 40913 ft | 531 kts | 49° |
| 2025-09-09 05:39 | -32.41443 | 145.11081 | 40911 ft | 534 kts | 49° |
| 2025-09-09 05:41 | -32.23376 | 145.44701 | 40921 ft | 535 kts | 48° |
| 2025-09-09 05:43 | -32.09236 | 145.70805 | 40985 ft | 537 kts | 48° |
| 2025-09-09 05:44 | -31.95081 | 145.96761 | 40928 ft | 538 kts | 47° |
| 2025-09-09 05:47 | -31.76690 | 146.30215 | 40943 ft | 540 kts | 48° |
| 2025-09-09 05:49 | -31.58196 | 146.63570 | 40991 ft | 542 kts | 48° |
| 2025-09-09 05:51 | -31.43627 | 146.89639 | 40972 ft | 542 kts | 48° |
| 2025-09-09 05:52 | -31.29016 | 147.15611 | 40978 ft | 542 kts | 47° |
| 2025-09-09 05:55 | -31.10170 | 147.48851 | 40891 ft | 542 kts | 48° |
| 2025-09-09 05:57 | -30.93354 | 147.78281 | 40961 ft | 542 kts | 47° |
| 2025-09-09 05:59 | -30.76419 | 148.07693 | 41087 ft | 542 kts | 47° |
| 2025-09-09 06:01 | -30.59374 | 148.37062 | 41046 ft | 547 kts | 48° |
| 2025-09-09 06:02 | -30.44370 | 148.62743 | 41092 ft | 548 kts | 48° |
| 2025-09-09 06:05 | -30.22851 | 148.99281 | 40994 ft | 549 kts | 47° |
| 2025-09-09 06:07 | -30.07717 | 149.24779 | 40955 ft | 554 kts | 48° |
| 2025-09-09 06:08 | -29.92582 | 149.50130 | 41067 ft | 548 kts | 48° |
| 2025-09-09 06:11 | -29.72936 | 149.82796 | 41070 ft | 548 kts | 48° |
| 2025-09-09 06:13 | -29.53238 | 150.15440 | 41084 ft | 554 kts | 52° |
| 2025-09-09 06:15 | -29.40197 | 150.42606 | 41111 ft | 557 kts | 56° |
| 2025-09-09 06:17 | -29.23257 | 150.77676 | 41125 ft | 558 kts | 55° |
| 2025-09-09 06:19 | -29.10049 | 151.04800 | 41136 ft | 558 kts | 55° |
| 2025-09-09 06:21 | -28.92959 | 151.39618 | 41146 ft | 555 kts | 56° |
| 2025-09-09 06:23 | -28.78120 | 151.65216 | 36915 ft | 547 kts | 38° |
| 2025-09-09 06:25 | -28.54545 | 151.91775 | 30621 ft | 519 kts | 38° |
| 2025-09-09 06:27 | -28.37138 | 152.11290 | 25960 ft | 480 kts | 38° |
| 2025-09-09 06:27 | -28.32439 | 152.16545 | 24697 ft | 468 kts | 39° |
| 2025-09-09 06:28 | -28.27828 | 152.21687 | 23461 ft | 455 kts | 39° |
| 2025-09-09 06:28 | -28.25569 | 152.24203 | 22845 ft | 450 kts | 39° |
| 2025-09-09 06:29 | -28.18984 | 152.31535 | 21088 ft | 436 kts | 39° |
| 2025-09-09 06:29 | -28.14677 | 152.36319 | 19938 ft | 428 kts | 41° |
| 2025-09-09 06:30 | -28.10496 | 152.40961 | 18815 ft | 419 kts | 41° |
| 2025-09-09 06:30 | -28.06381 | 152.45525 | 17697 ft | 411 kts | 41° |
| 2025-09-09 06:31 | -28.02332 | 152.50011 | 16605 ft | 402 kts | 41° |
| 2025-09-09 06:31 | -27.98430 | 152.54329 | 15558 ft | 388 kts | 41° |
| 2025-09-09 06:32 | -27.94803 | 152.58699 | 14520 ft | 377 kts | 54° |
| 2025-09-09 06:32 | -27.91258 | 152.66402 | 13018 ft | 358 kts | 60° |
| 2025-09-09 06:33 | -27.90133 | 152.68884 | 12549 ft | 349 kts | 60° |
| 2025-09-09 06:33 | -27.87968 | 152.73653 | 11645 ft | 334 kts | 60° |
| 2025-09-09 06:34 | -27.85898 | 152.78209 | 10805 ft | 322 kts | 59° |
| 2025-09-09 06:34 | -27.83877 | 152.82651 | 9877 ft | 313 kts | 60° |
| 2025-09-09 06:35 | -27.81922 | 152.86900 | 9101 ft | 300 kts | 56° |
| 2025-09-09 06:35 | -27.80586 | 152.88634 | 8687 ft | 289 kts | 34° |
| 2025-09-09 06:36 | -27.75515 | 152.91628 | 7571 ft | 261 kts | 24° |
| 2025-09-09 06:36 | -27.73899 | 152.92539 | 7202 ft | 255 kts | 24° |
| 2025-09-09 06:37 | -27.69168 | 152.95247 | 5983 ft | 255 kts | 25° |
| 2025-09-09 06:37 | -27.66045 | 152.97046 | 5362 ft | 249 kts | 24° |
| 2025-09-09 06:38 | -27.62999 | 152.98798 | 4803 ft | 242 kts | 24° |
| 2025-09-09 06:38 | -27.60033 | 153.00501 | 4200 ft | 237 kts | 24° |
| 2025-09-09 06:38 | -27.58573 | 153.01340 | 3882 ft | 234 kts | 25° |
| 2025-09-09 06:39 | -27.54364 | 153.03757 | 3011 ft | 208 kts | 24° |
| 2025-09-09 06:39 | -27.53109 | 153.04477 | 2739 ft | 198 kts | 24° |
| 2025-09-09 06:40 | -27.50728 | 153.05839 | 2254 ft | 190 kts | 24° |
| 2025-09-09 06:41 | -27.47451 | 153.07724 | 1581 ft | 148 kts | 24° |
| 2025-09-09 06:41 | -27.45805 | 153.08667 | 1249 ft | 124 kts | 24° |
| 2025-09-09 06:42 | -27.44295 | 153.09525 | 917 ft | 120 kts | 24° |
| 2025-09-09 06:42 | -27.42824 | 153.10359 | 596 ft | 116 kts | 25° |
| 2025-09-09 06:43 | -27.41413 | 153.11173 | 291 ft | 111 kts | 25° |
| 2025-09-09 06:43 | -27.40731 | 153.11562 | 150 ft | 108 kts | 26° |
| 2025-09-09 06:43 | -27.39491 | 153.12273 | 18 ft | 74 kts | 27° |
| 2025-09-09 06:44 | -27.38898 | 153.12601 | 20 ft | 39 kts | 24° |
| 2025-09-09 06:45 | -27.38516 | 153.12654 | 18 ft | 11 kts | 358° |
| 2025-09-09 06:45 | -27.38301 | 153.12724 | 18 ft | 21 kts | 26° |
| 2025-09-09 06:46 | -27.38010 | 153.12891 | 17 ft | 23 kts | 27° |
| 2025-09-09 06:46 | -27.37711 | 153.13065 | 16 ft | 21 kts | 26° |
| 2025-09-09 06:47 | -27.37516 | 153.13092 | 17 ft | 13 kts | 306° |
| 2025-09-09 06:47 | -27.37369 | 153.13043 | 17 ft | 12 kts | 297° |
| 2025-09-09 06:47 | -27.37326 | 153.12947 | 17 ft | 15 kts | 298° |
| 2025-09-09 06:48 | -27.37229 | 153.12729 | 21 ft | 11 kts | 284° |
| 2025-09-09 06:49 | -27.37413 | 153.12570 | 25 ft | 7 kts | 207° |
| 2025-09-09 06:49 | -27.37473 | 153.12593 | 24 ft | 3 kts | 117° |
| 2025-09-09 06:50 | -27.37474 | 153.12595 | 24 ft | 0 kts | 116° |